Weather at El Ahijadero Airport

Public forecast

Using degrees Celsius for public forecast. Weather courtesy of forecast.io.

Closest aviation weather report (METAR) to El Ahijadero Airport

Report is more than 6 hours old.

Closest report is General Heriberto Jara International Airport, 23.6 nm (43.8 km) N. Retrieved 2021/01/26 19:42 UTC (6 hours ago):

MMVR 261942Z 02008KT 7SM SKC 30/21 A2972 RMK HZY

Closest aviation forecast (TAF) to El Ahijadero Airport

Forecast is more than 6 hours old.

Closest forecast is General Heriberto Jara International Airport, 23.6 nm (43.8 km) N. Retrieved 2021/01/26 18:00 UTC (8 hours ago):

TAF MMVR 261657Z 2618/2718 15010KT P6SM SKC TX32/2621Z TN24/2712Z FM270300 02015KT 5SM HZ BKN020 PROB40 2704/2706 3SM -RA FM271000 02015KT 3SM BR BKN008 OVC015 TEMPO 2712/2715 2SM -DZ OVC008